Ambridge, Pennsylvania
Current Conditions -  °F | °C
As of 10:51 PM on Saturday 22 Nov 2014 (Local Time) from KPIT Reporting Station
Broken Clouds Broken Clouds  
Wind Chill: 50°   Ceiling: 7000
Heat Index: 50°   Visibility: 10mi
Dew Point: 30°   Wind: 8mph
Humidity: 46%   Direction: 200°SSW
Pressure: 30.09"   Gusts: NA
Location:  40.59°N, 80.23°W
Report Text: KPIT 230351Z 20007KT 10SM SCT060 BKN070 BKN100 10/M01 A3009 RMK AO2 SLP204 T01001011
Loading
Personal Weather Stations






























Interactive Weather Map New forecast layout! Learn more

10-Day Weather Forecast

Advertisements
Track Severe Weather on mobile